createdAt,value
2022-09-12T00:01:20.000Z,27.50
2022-09-12T00:03:47.031Z,25.20
2022-09-12T00:06:22.611Z,23.38
2022-09-12T00:08:50.976Z,24.92
2022-09-12T00:11:17.586Z,25.00
2022-09-12T00:13:44.287Z,24.35
2022-09-12T00:16:16.644Z,20.85
2022-09-12T00:18:44.824Z,22.08
2022-09-12T00:21:11.542Z,21.13
2022-09-12T00:23:38.202Z,24.95
2022-09-12T00:26:07.667Z,24.23
2022-09-12T00:28:36.212Z,24.65
2022-09-12T00:31:16.863Z,26.48
2022-09-12T00:33:44.036Z,29.13
2022-09-12T00:36:14.801Z,30.38
2022-09-12T00:38:42.638Z,29.67
2022-09-12T00:41:17.234Z,31.77
2022-09-12T00:43:47.123Z,30.65
2022-09-12T00:46:19.934Z,30.33
2022-09-12T00:48:54.363Z,29.02
2022-09-12T00:51:21.617Z,30.95
2022-09-12T00:53:53.567Z,29.67
2022-09-12T00:56:21.801Z,27.35
2022-09-12T00:58:55.804Z,29.17
2022-09-12T01:01:22.530Z,27.75
2022-09-12T01:03:49.480Z,28.17
2022-09-12T01:06:21.323Z,26.42
2022-09-12T01:08:49.507Z,25.25
2022-09-12T01:11:16.647Z,26.00
2022-09-12T01:13:44.999Z,26.85
2022-09-12T01:16:12.046Z,28.85
2022-09-12T01:18:46.308Z,28.17
2022-09-12T01:21:30.309Z,30.23
2022-09-12T01:24:24.242Z,30.17
2022-09-12T01:26:59.863Z,28.40
2022-09-12T01:29:41.707Z,28.42
2022-09-12T01:32:11.118Z,30.80
2022-09-12T01:34:52.679Z,28.48
2022-09-12T01:37:49.393Z,28.85
2022-09-12T01:40:31.415Z,28.92
2022-09-12T01:43:36.087Z,28.25
2022-09-12T01:46:02.679Z,27.85
2022-09-12T01:48:47.640Z,27.15
2022-09-12T01:51:26.197Z,26.27
2022-09-12T01:54:03.984Z,23.98
2022-09-12T01:56:34.311Z,27.45
2022-09-12T01:59:00.859Z,28.05
2022-09-12T02:01:38.395Z,28.20
2022-09-12T02:04:25.415Z,23.23
2022-09-12T02:07:27.583Z,20.58
2022-09-12T02:10:07.546Z,21.58
2022-09-12T02:12:52.994Z,22.58
2022-09-12T02:17:50.803Z,24.73
2022-09-12T02:20:44.341Z,24.90
2022-09-12T02:23:14.883Z,23.05
2022-09-12T02:25:46.200Z,25.63
2022-09-12T02:28:18.576Z,23.40
2022-09-12T02:31:04.391Z,23.05
2022-09-12T02:33:45.259Z,22.42
2022-09-12T02:36:23.989Z,24.05
2022-09-12T02:38:51.107Z,24.85
2022-09-12T02:41:20.156Z,24.45
2022-09-12T02:43:49.093Z,25.27
2022-09-12T02:46:26.650Z,25.63
2022-09-12T02:48:54.259Z,26.42
2022-09-12T02:51:23.814Z,26.60
2022-09-12T02:53:51.135Z,25.40
2022-09-12T02:56:24.715Z,26.00
2022-09-12T02:58:52.540Z,23.73
2022-09-12T03:01:29.120Z,23.75
2022-09-12T03:04:01.809Z,21.27
2022-09-12T03:07:02.004Z,20.52
2022-09-12T03:09:42.373Z,22.50
2022-09-12T03:12:28.201Z,23.75
2022-09-12T03:15:28.298Z,24.73
2022-09-12T03:18:24.886Z,26.00
2022-09-12T03:21:01.839Z,24.50
2022-09-12T03:23:38.219Z,24.75
2022-09-12T03:26:20.921Z,25.40
2022-09-12T03:28:48.789Z,24.42
2022-09-12T03:31:19.709Z,24.77
2022-09-12T03:33:46.829Z,25.27
2022-09-12T03:36:23.822Z,25.08
2022-09-12T03:38:50.806Z,28.58
2022-09-12T03:41:18.066Z,27.05
2022-09-12T03:43:45.675Z,25.50
2022-09-12T03:46:13.464Z,28.35
2022-09-12T03:48:41.112Z,23.52
2022-09-12T03:51:09.895Z,22.00
2022-09-12T03:53:36.931Z,19.80
2022-09-12T03:56:11.473Z,19.80
2022-09-12T03:58:39.333Z,19.83
2022-09-12T04:01:12.607Z,20.27
2022-09-12T04:03:44.200Z,21.92
2022-09-12T04:06:13.716Z,20.52
2022-09-12T04:08:41.266Z,21.35
2022-09-12T04:11:13.847Z,22.20
2022-09-12T04:13:42.316Z,21.55
2022-09-12T04:16:09.694Z,23.13
2022-09-12T04:18:36.496Z,22.73
2022-09-12T04:21:12.692Z,23.88
2022-09-12T04:23:39.735Z,25.58
2022-09-12T04:26:06.650Z,23.67
2022-09-12T04:28:35.150Z,27.10
2022-09-12T04:31:12.409Z,27.48
2022-09-12T04:33:39.603Z,30.55
2022-09-12T04:36:08.844Z,28.83
2022-09-12T04:38:36.577Z,27.08
2022-09-12T04:41:13.674Z,26.38
2022-09-12T04:43:40.702Z,26.05
2022-09-12T04:46:10.078Z,27.75
2022-09-12T04:48:37.621Z,27.75
2022-09-12T04:51:15.850Z,28.13
2022-09-12T04:53:43.465Z,29.05
2022-09-12T04:56:11.549Z,28.35
2022-09-12T04:58:38.589Z,27.98
2022-09-12T05:01:09.271Z,29.02
2022-09-12T05:03:38.845Z,26.23
2022-09-12T05:06:14.256Z,27.10
2022-09-12T05:08:41.681Z,25.83
2022-09-12T05:11:11.729Z,25.15
2022-09-12T05:13:38.785Z,25.52
2022-09-12T05:16:06.305Z,27.17
2022-09-12T05:18:34.380Z,28.00
2022-09-12T05:21:02.654Z,28.40
2022-09-12T05:23:30.405Z,27.40
2022-09-12T05:26:00.479Z,29.95
2022-09-12T05:28:33.083Z,25.40
2022-09-12T05:31:02.004Z,23.13
2022-09-12T05:33:29.058Z,25.17
2022-09-12T05:35:55.706Z,24.92
2022-09-12T05:38:24.816Z,27.63
2022-09-12T05:40:52.165Z,29.65
2022-09-12T05:43:20.239Z,29.05
2022-09-12T05:45:46.885Z,30.38
2022-09-12T05:48:13.645Z,28.95
2022-09-12T05:50:42.358Z,26.83
2022-09-12T05:53:08.980Z,25.30
2022-09-12T05:55:36.582Z,25.33
2022-09-12T05:58:03.643Z,25.98
2022-09-12T06:00:33.559Z,25.38
2022-09-12T06:03:01.340Z,26.63
2022-09-12T06:05:28.349Z,26.10
2022-09-12T06:07:55.012Z,27.73
2022-09-12T06:10:22.921Z,29.65
2022-09-12T06:12:49.534Z,31.65
2022-09-12T06:15:16.936Z,33.85
2022-09-12T06:17:43.641Z,35.08
2022-09-12T06:20:10.322Z,34.28
2022-09-12T06:22:37.006Z,32.80
2022-09-12T06:25:04.933Z,38.35
2022-09-12T06:27:31.698Z,35.70
2022-09-12T06:29:59.312Z,39.67
2022-09-12T06:32:25.999Z,41.10
2022-09-12T06:34:52.762Z,44.75
2022-09-12T06:37:19.926Z,42.92
2022-09-12T06:39:47.029Z,40.28
2022-09-12T06:42:14.784Z,42.60
2022-09-12T06:44:46.542Z,44.33
2022-09-12T06:47:13.132Z,44.33
2022-09-12T06:49:39.701Z,43.55
2022-09-12T06:52:07.148Z,42.60
2022-09-12T06:54:33.801Z,41.40
2022-09-12T06:57:00.391Z,41.20
2022-09-12T06:59:27.033Z,38.85
2022-09-12T07:01:53.683Z,39.95
2022-09-12T07:04:20.365Z,35.78
2022-09-12T07:06:47.733Z,32.00
2022-09-12T07:09:18.127Z,24.42
2022-09-12T07:11:45.731Z,24.45
2022-09-12T07:14:13.912Z,23.35
2022-09-12T07:16:40.763Z,21.55
2022-09-12T07:19:08.599Z,19.38
2022-09-12T07:21:40.338Z,20.35
2022-09-12T07:24:09.543Z,20.23
2022-09-12T07:26:36.431Z,21.35
2022-09-12T07:29:32.412Z,19.40
2022-09-12T07:31:49.850Z,21.75
2022-09-12T07:34:17.304Z,21.40
2022-09-12T07:36:43.912Z,21.35
2022-09-12T07:39:10.989Z,21.40
2022-09-12T07:41:37.901Z,22.92
2022-09-12T07:44:06.512Z,22.63
2022-09-12T07:46:33.485Z,22.20
2022-09-12T07:49:01.367Z,23.98
2022-09-12T07:51:30.010Z,24.10
2022-09-12T07:53:56.856Z,25.35
2022-09-12T07:56:28.823Z,24.58
2022-09-12T07:58:57.033Z,24.15
2022-09-12T08:01:24.400Z,25.27
2022-09-12T08:03:56.686Z,24.70
2022-09-12T08:06:24.606Z,24.85
2022-09-12T08:08:53.116Z,24.10
2022-09-12T08:11:22.402Z,23.88
2022-09-12T08:13:55.445Z,24.75
2022-09-12T08:16:24.655Z,23.77
2022-09-12T08:18:51.603Z,24.48
2022-09-12T08:21:20.779Z,24.08
2022-09-12T08:23:51.416Z,25.20
2022-09-12T08:26:17.998Z,25.05
2022-09-12T08:28:45.657Z,24.33
2022-09-12T08:31:15.876Z,24.80
2022-09-12T08:33:42.757Z,25.30
2022-09-12T08:36:19.328Z,25.30
2022-09-12T08:38:47.592Z,24.23
2022-09-12T08:41:23.527Z,25.10
2022-09-12T08:44:24.085Z,24.75
2022-09-12T08:47:21.966Z,23.95
2022-09-12T08:50:09.860Z,24.02
2022-09-12T08:52:50.242Z,25.25
2022-09-12T08:55:40.199Z,24.67
2022-09-12T08:58:24.539Z,24.33
2022-09-12T09:01:30.036Z,26.05
2022-09-12T09:04:17.885Z,25.92
2022-09-12T09:07:22.708Z,26.90
2022-09-12T09:09:49.400Z,24.77
2022-09-12T09:12:30.189Z,25.17
2022-09-12T09:15:24.918Z,24.35
2022-09-12T09:18:01.173Z,24.30
2022-09-12T09:20:32.748Z,24.75
2022-09-12T09:23:10.511Z,24.42
2022-09-12T09:26:03.519Z,24.35
2022-09-12T09:28:52.658Z,24.85
2022-09-12T09:31:24.011Z,24.25
2022-09-12T09:33:55.313Z,24.45
2022-09-12T09:36:44.852Z,25.40
2022-09-12T09:39:38.453Z,24.85
2022-09-12T09:42:35.629Z,24.20
2022-09-12T09:45:11.842Z,23.50
2022-09-12T09:47:38.488Z,23.10
2022-09-12T09:50:06.356Z,24.52
2022-09-12T09:52:33.022Z,24.98
2022-09-12T09:55:01.805Z,24.42
2022-09-12T09:57:34.144Z,25.63
2022-09-12T10:00:27.742Z,26.45
2022-09-12T10:03:24.233Z,26.02
2022-09-12T10:05:53.784Z,24.63
2022-09-12T10:08:32.686Z,24.13
2022-09-12T10:11:17.181Z,25.50
2022-09-12T10:13:56.775Z,26.27
2022-09-12T10:16:27.701Z,26.40
2022-09-12T10:18:57.050Z,25.05
2022-09-12T10:21:29.713Z,26.20
2022-09-12T10:24:13.469Z,25.75
2022-09-12T10:26:41.698Z,27.00
2022-09-12T10:29:16.823Z,26.77
2022-09-12T10:31:54.130Z,26.55
2022-09-12T10:34:35.466Z,27.42
2022-09-12T10:37:08.336Z,25.98
2022-09-12T10:39:36.355Z,25.23
2022-09-12T10:42:05.331Z,26.30
2022-09-12T10:44:34.502Z,26.58
2022-09-12T10:47:20.658Z,25.90
2022-09-12T10:49:47.296Z,25.85
2022-09-12T10:52:24.326Z,25.33
2022-09-12T10:54:51.966Z,26.40
2022-09-12T10:57:43.126Z,26.77
2022-09-12T11:00:18.064Z,25.67
2022-09-12T11:03:16.090Z,27.42
2022-09-12T11:06:01.494Z,25.63
2022-09-12T11:08:40.726Z,26.17
2022-09-12T11:11:25.407Z,26.63
2022-09-12T11:14:06.648Z,26.95
2022-09-12T11:16:54.239Z,25.02
2022-09-12T11:19:54.747Z,26.33
2022-09-12T11:22:36.309Z,25.63
2022-09-12T11:25:26.065Z,27.15
2022-09-12T11:28:20.100Z,26.42
2022-09-12T11:31:17.056Z,25.73
2022-09-12T11:33:46.670Z,26.77
2022-09-12T11:36:26.007Z,26.15
2022-09-12T11:39:13.228Z,25.77
2022-09-12T11:41:49.244Z,25.90
2022-09-12T11:44:22.720Z,26.02
2022-09-12T11:46:51.979Z,25.65
2022-09-12T11:49:24.851Z,26.40
2022-09-12T11:51:51.451Z,27.05
2022-09-12T11:55:00.191Z,25.02
2022-09-12T11:57:39.767Z,26.20
2022-09-12T12:00:19.411Z,25.58
2022-09-12T12:03:01.153Z,25.45
2022-09-12T12:05:33.887Z,26.20
2022-09-12T12:08:04.242Z,26.58
2022-09-12T12:10:38.012Z,26.15
2022-09-12T12:13:22.141Z,26.13
2022-09-12T12:15:53.360Z,26.48
2022-09-12T12:18:24.557Z,25.52
2022-09-12T12:20:53.160Z,25.13
2022-09-12T12:23:28.371Z,25.00
2022-09-12T12:25:57.335Z,25.05
2022-09-12T12:28:42.370Z,25.60
2022-09-12T12:31:10.587Z,24.92
2022-09-12T12:33:37.252Z,25.75
2022-09-12T12:36:07.601Z,24.75
2022-09-12T12:38:36.978Z,24.35
2022-09-12T12:41:18.905Z,25.65
2022-09-12T12:43:47.445Z,24.23
2022-09-12T12:46:18.770Z,24.77
2022-09-12T12:48:48.229Z,25.27
2022-09-12T12:51:27.943Z,25.92
2022-09-12T12:53:55.181Z,25.52
2022-09-12T12:56:34.552Z,25.20
2022-09-12T12:59:05.115Z,25.27
2022-09-12T13:01:39.902Z,25.25
2022-09-12T13:04:17.963Z,24.85
2022-09-12T13:06:47.347Z,25.30
2022-09-12T13:09:14.348Z,23.48
2022-09-12T13:11:41.474Z,25.30
2022-09-12T13:14:36.838Z,25.35
2022-09-12T13:17:13.477Z,26.13
2022-09-12T13:19:41.250Z,25.90
2022-09-12T13:22:09.692Z,25.33
2022-09-12T13:24:52.477Z,25.33
2022-09-12T13:27:22.166Z,25.52
2022-09-12T13:29:49.333Z,24.40
2022-09-12T13:32:17.908Z,24.83
2022-09-12T13:34:44.508Z,25.70
2022-09-12T13:37:31.753Z,24.55
2022-09-12T13:40:18.160Z,25.38
2022-09-12T13:42:51.506Z,25.60
2022-09-12T13:45:27.626Z,25.17
2022-09-12T13:48:01.875Z,25.92
2022-09-12T13:50:32.205Z,24.48
2022-09-12T13:53:06.778Z,25.65
2022-09-12T13:55:37.351Z,24.58
2022-09-12T13:58:24.827Z,24.40
2022-09-12T14:01:21.594Z,23.83
2022-09-12T14:04:12.804Z,24.58
2022-09-12T14:06:46.475Z,24.63
2022-09-12T14:09:15.902Z,24.60
2022-09-12T14:11:43.069Z,25.33
2022-09-12T14:14:31.162Z,25.42
2022-09-12T14:16:58.812Z,25.38
2022-09-12T14:19:26.495Z,25.48
2022-09-12T14:22:02.119Z,25.20
2022-09-12T14:24:29.571Z,24.73
2022-09-12T14:26:56.779Z,25.13
2022-09-12T14:29:25.137Z,25.85
2022-09-12T14:32:02.649Z,25.85
2022-09-12T14:34:29.830Z,25.75
2022-09-12T14:36:57.724Z,26.45
2022-09-12T14:39:40.971Z,26.13
2022-09-12T14:42:18.163Z,25.85
2022-09-12T14:44:56.555Z,26.05
2022-09-12T14:47:26.335Z,26.27
2022-09-12T14:49:54.432Z,25.30
2022-09-12T14:52:28.676Z,25.70
2022-09-12T14:55:00.904Z,25.80
2022-09-12T14:57:38.889Z,25.50
2022-09-12T15:00:13.045Z,26.88
2022-09-12T15:02:41.805Z,26.42
2022-09-12T15:05:08.542Z,25.90
2022-09-12T15:07:53.673Z,26.90
2022-09-12T15:10:24.016Z,25.30
2022-09-12T15:13:03.125Z,26.08
2022-09-12T15:15:30.114Z,24.95
2022-09-12T15:17:56.954Z,25.98
2022-09-12T15:20:23.977Z,24.92
2022-09-12T15:22:51.465Z,25.83
2022-09-12T15:25:18.131Z,26.13
2022-09-12T15:27:49.104Z,25.90
2022-09-12T15:30:15.843Z,26.15
2022-09-12T15:32:43.993Z,25.63
2022-09-12T15:35:22.157Z,25.35
2022-09-12T15:37:49.738Z,26.40
2022-09-12T15:40:17.121Z,26.08
2022-09-12T15:42:44.187Z,24.73
2022-09-12T15:45:22.993Z,25.50
2022-09-12T15:47:49.608Z,26.35
2022-09-12T15:50:16.398Z,27.90
2022-09-12T15:52:43.160Z,27.02
2022-09-12T15:55:21.074Z,25.05
2022-09-12T15:57:47.844Z,25.63
2022-09-12T16:00:15.982Z,26.77
2022-09-12T16:02:42.691Z,27.33
2022-09-12T16:05:16.078Z,25.58
2022-09-12T16:07:43.764Z,25.88
2022-09-12T16:10:18.855Z,27.27
2022-09-12T16:12:46.077Z,27.00
2022-09-12T16:15:24.200Z,26.35
2022-09-12T16:17:51.478Z,26.20
2022-09-12T16:20:19.133Z,25.77
2022-09-12T16:22:46.197Z,27.15
2022-09-12T16:25:13.186Z,26.10
2022-09-12T16:27:40.343Z,26.73
2022-09-12T16:30:08.306Z,27.05
2022-09-12T16:32:35.493Z,26.70
2022-09-12T16:35:02.208Z,27.42
2022-09-12T16:37:29.010Z,29.10
2022-09-12T16:39:55.852Z,27.98
2022-09-12T16:42:22.873Z,28.55
2022-09-12T16:44:49.712Z,27.65
2022-09-12T16:47:16.435Z,27.70
2022-09-12T16:49:43.320Z,26.23
2022-09-12T16:52:11.346Z,26.25
2022-09-12T16:54:38.002Z,26.00
2022-09-12T16:57:06.365Z,26.77
2022-09-12T16:59:33.251Z,26.83
2022-09-12T17:02:00.120Z,25.73
2022-09-12T17:04:26.996Z,25.63
2022-09-12T17:06:53.718Z,26.48
2022-09-12T17:09:21.324Z,26.33
2022-09-12T17:11:49.780Z,25.20
2022-09-12T17:14:17.198Z,25.40
2022-09-12T17:16:51.388Z,25.52
2022-09-12T17:19:26.419Z,25.65
2022-09-12T17:21:53.878Z,26.58
2022-09-12T17:24:20.716Z,25.40
2022-09-12T17:26:47.474Z,25.92
2022-09-12T17:29:14.978Z,25.58
2022-09-12T17:31:42.232Z,26.50
2022-09-12T17:34:09.896Z,25.75
2022-09-12T17:36:36.621Z,27.15
2022-09-12T17:39:04.216Z,27.30
2022-09-12T17:41:31.974Z,25.05
2022-09-12T17:44:00.387Z,25.90
2022-09-12T17:46:34.932Z,24.40
2022-09-12T17:51:31.306Z,24.25
2022-09-12T17:54:08.122Z,25.08
2022-09-12T17:56:36.897Z,23.50
2022-09-12T17:59:05.138Z,23.20
2022-09-12T18:01:50.792Z,23.75
2022-09-12T18:04:19.753Z,23.58
2022-09-12T18:06:50.055Z,23.30
2022-09-12T18:09:23.232Z,23.45
2022-09-12T18:11:50.887Z,23.80
2022-09-12T18:14:18.476Z,22.98
2022-09-12T18:16:46.420Z,22.75
2022-09-12T18:19:13.843Z,23.25
2022-09-12T18:21:41.172Z,23.08
2022-09-12T18:24:09.516Z,22.40
2022-09-12T18:26:36.230Z,21.95
2022-09-12T18:29:06.134Z,21.88
2022-09-12T18:31:33.011Z,22.13
2022-09-12T18:34:00.202Z,20.48
2022-09-12T18:36:27.470Z,20.73
2022-09-12T18:38:54.365Z,21.48
2022-09-12T18:41:23.043Z,21.35
2022-09-12T18:43:53.795Z,22.08
2022-09-12T18:46:20.635Z,21.42
2022-09-12T18:48:47.934Z,22.20
2022-09-12T18:51:22.936Z,21.77
2022-09-12T18:56:19.360Z,22.10
2022-09-12T18:58:50.846Z,21.02
2022-09-12T19:01:20.301Z,20.92
2022-09-12T19:03:47.417Z,21.42
2022-09-12T19:06:20.661Z,22.25
2022-09-12T19:08:48.933Z,22.13
2022-09-12T19:11:17.199Z,21.27
2022-09-12T19:13:45.394Z,21.25
2022-09-12T19:16:14.801Z,21.65
2022-09-12T19:18:42.493Z,20.98
2022-09-12T19:21:16.593Z,20.38
2022-09-12T19:23:44.206Z,22.05
2022-09-12T19:26:14.907Z,22.10
2022-09-12T19:28:43.086Z,21.92
2022-09-12T19:31:12.144Z,21.77
2022-09-12T19:33:39.652Z,22.02
2022-09-12T19:36:27.251Z,22.58
2022-09-12T19:38:55.399Z,21.92
2022-09-12T19:41:22.208Z,21.67
2022-09-12T19:43:48.841Z,21.63
2022-09-12T19:46:18.125Z,21.63
2022-09-12T19:48:45.611Z,20.30
2022-09-12T19:51:12.668Z,20.98
2022-09-12T19:53:40.707Z,20.70
2022-09-12T19:56:08.779Z,18.65
2022-09-12T19:58:40.818Z,19.90
2022-09-12T20:01:13.467Z,18.98
2022-09-12T20:03:40.535Z,18.70
2022-09-12T20:06:14.291Z,17.52
2022-09-12T20:08:44.568Z,17.92
2022-09-12T20:11:13.587Z,18.42
2022-09-12T20:13:41.080Z,18.33
2022-09-12T20:16:20.352Z,18.90
2022-09-12T20:18:51.864Z,18.60
2022-09-12T20:21:21.748Z,19.25
2022-09-12T20:23:48.440Z,19.48
2022-09-12T20:26:15.379Z,17.40
2022-09-12T20:28:43.185Z,19.98
2022-09-12T20:31:15.736Z,18.55
2022-09-12T20:33:43.159Z,18.67
2022-09-12T20:36:15.907Z,17.23
2022-09-12T20:38:48.147Z,18.50
2022-09-12T20:41:14.880Z,19.25
2022-09-12T20:43:41.614Z,18.23
2022-09-12T20:46:12.279Z,17.95
2022-09-12T20:48:39.152Z,18.90
2022-09-12T20:51:06.982Z,18.10
2022-09-12T20:53:35.278Z,17.88
2022-09-12T20:56:03.184Z,17.88
2022-09-12T20:58:30.024Z,18.55
2022-09-12T21:00:57.031Z,17.88
2022-09-12T21:03:25.275Z,18.25
2022-09-12T21:05:52.393Z,16.98
2022-09-12T21:08:19.005Z,17.90
2022-09-12T21:10:45.688Z,27.90
2022-09-12T21:13:13.171Z,20.17
2022-09-12T21:15:40.721Z,19.23
2022-09-12T21:18:07.614Z,19.02
2022-09-12T21:20:34.625Z,16.02
2022-09-12T21:23:01.288Z,16.45
2022-09-12T21:25:29.014Z,16.98
2022-09-12T21:27:55.654Z,16.08
2022-09-12T21:30:22.521Z,16.08
2022-09-12T21:32:49.331Z,17.10
2022-09-12T21:35:16.125Z,17.65
2022-09-12T21:37:42.770Z,16.52
2022-09-12T21:40:09.866Z,16.52
2022-09-12T21:42:36.550Z,16.55
2022-09-12T21:45:03.362Z,17.80
2022-09-12T21:47:30.176Z,17.92
2022-09-12T21:49:57.500Z,18.05
2022-09-12T21:52:24.175Z,18.30
2022-09-12T21:54:50.881Z,17.85
2022-09-12T21:57:17.517Z,18.70
2022-09-12T21:59:44.278Z,18.52
2022-09-12T22:02:12.241Z,20.38
2022-09-12T22:04:39.085Z,19.10
2022-09-12T22:07:05.867Z,18.50
2022-09-12T22:09:34.241Z,19.02
2022-09-12T22:12:02.206Z,19.30
2022-09-12T22:14:29.470Z,18.90
2022-09-12T22:16:56.672Z,20.58
2022-09-12T22:19:23.359Z,19.13
2022-09-12T22:22:08.520Z,19.33
2022-09-12T22:24:35.148Z,20.33
2022-09-12T22:27:04.008Z,19.90
2022-09-12T22:29:30.648Z,20.05
2022-09-12T22:31:58.989Z,19.38
2022-09-12T22:34:26.429Z,20.55
2022-09-12T22:36:53.474Z,19.92
2022-09-12T22:39:20.149Z,20.17
2022-09-12T22:41:46.975Z,19.48
2022-09-12T22:44:13.674Z,19.80
2022-09-12T22:46:40.367Z,19.98
2022-09-12T22:49:07.682Z,21.98
2022-09-12T22:51:34.435Z,20.67
2022-09-12T22:54:01.569Z,20.08
2022-09-12T22:56:28.320Z,20.35
2022-09-12T22:58:55.103Z,21.02
2022-09-12T23:01:21.786Z,19.63
2022-09-12T23:03:48.582Z,19.17
2022-09-12T23:06:15.704Z,20.33
2022-09-12T23:08:42.931Z,19.67
2022-09-12T23:11:13.183Z,19.33
2022-09-12T23:13:42.413Z,18.73
2022-09-12T23:16:15.019Z,18.20
2022-09-12T23:18:41.792Z,18.65
2022-09-12T23:21:10.598Z,19.30
2022-09-12T23:23:37.918Z,19.65
2022-09-12T23:26:24.750Z,19.25
2022-09-12T23:28:52.755Z,18.83
2022-09-12T23:31:20.828Z,18.80
2022-09-12T23:33:47.628Z,19.67
2022-09-12T23:36:14.393Z,19.83
2022-09-12T23:38:46.022Z,19.02
2022-09-12T23:41:14.730Z,19.88
2022-09-12T23:43:42.801Z,20.42
2022-09-12T23:46:09.635Z,19.77
2022-09-12T23:48:36.361Z,20.40
2022-09-12T23:51:03.015Z,19.48
2022-09-12T23:53:29.640Z,19.83
2022-09-12T23:55:56.619Z,20.80
2022-09-12T23:58:23.497Z,19.67
